Terminal Aerodrome Forecast
Issued by NWS Sterling, VA

Home | Current Version | Previous Version | Text Only | Print | Product List | Glossary On
Versions: 1 2 3 4 5 6 7 8 9 10 11 12 13 14 15 16 17 18 19 20 21 22 23 24 25 26 27 28
000
FTUS41 KLWX 282300
TAFIAD
TAF
KIAD 282338Z 2900/3006 33006KT P6SM SKC
     FM290800 00000KT P6SM SCT250
     FM291200 00000KT P6SM BKN090
     FM291500 15007KT P6SM OVC090
     FM291800 16010G18KT P6SM SCT050 OVC090
     FM292100 17010G18KT 3SM -RASN SCT025 OVC050
     FM300000 18009KT P6SM OVC050=

USA.gov is the U.S. government's official web portal to all federal, state and local government web resources and services.